.
WxDataArchive / Data Records for 2006-11-17
2006-11-16 November 2006 2006-11-18

Data Records for Friday, 17 November 2006

Time	Temp	Chill	HIndex	Humid	Dewpt	 Wind 	HiWind	WindDir	Rain 	Barom 
-----	----	-----	------	-----	-----	------	------	-------	-----	----- 
00:00	37.3	37.3	37.3	95	36.0	1	2	292	0.00	29.661 
00:05	37.3	37.3	37.3	95	36.0	1	3	292	0.00	29.661 
00:10	37.5	37.5	37.5	94	35.9	1	4	270	0.00	29.661 
00:15	37.5	37.5	37.5	93	35.7	1	4	338	0.00	29.668 
00:20	37.5	37.5	37.5	92	35.4	1	4	315	0.00	29.668 
00:25	37.6	37.6	37.6	89	34.7	1	3	292	0.00	29.668 
00:30	37.8	37.8	37.8	88	34.6	1	3	292	0.00	29.676 
00:35	37.8	37.8	37.8	87	34.3	1	3	270	0.00	29.676 
00:40	37.8	37.8	37.8	87	34.3	1	3	315	0.00	29.676 
00:45	37.8	37.8	37.8	85	33.7	1	4	315	0.00	29.682 
00:50	37.8	37.8	37.8	84	33.4	2	4	292	0.00	29.682 
00:55	37.8	37.8	37.8	84	33.4	1	3	270	0.00	29.682 
01:00	37.6	37.6	37.6	85	33.5	1	2	338	0.00	29.686 
01:05	37.6	37.6	37.6	86	33.8	0	2	338	0.00	29.686 
01:10	37.6	37.6	37.6	86	33.8	1	3	270	0.00	29.686 
01:15	37.6	37.6	37.6	86	33.8	0	2	315	0.00	29.693 
01:20	37.5	37.5	37.5	85	33.4	1	2	338	0.00	29.693 
01:25	37.5	37.5	37.5	84	33.1	1	5	292	0.00	29.693 
01:30	37.5	37.5	37.5	85	33.4	1	3	248	0.00	29.699 
01:35	37.5	37.5	37.5	84	33.1	1	3	292	0.00	29.699 
01:40	37.6	37.6	37.6	84	33.2	1	4	315	0.00	29.699 
01:45	37.6	37.6	37.6	84	33.2	1	2	338	0.00	29.702 
01:50	37.6	37.6	37.6	84	33.2	1	4	338	0.00	29.702 
01:55	37.6	37.6	37.6	84	33.2	1	4	338	0.00	29.702 
02:00	37.8	37.8	37.8	84	33.4	1	3	270	0.00	29.713 
02:05	37.8	37.8	37.8	84	33.4	1	5	270	0.00	29.713 
02:10	37.8	37.8	37.8	84	33.4	1	3	248	0.00	29.713 
02:15	37.8	37.8	37.8	84	33.4	1	3	338	0.00	29.716 
02:20	37.9	37.9	37.9	85	33.8	1	3	292	0.00	29.716 
02:25	37.9	37.9	37.9	86	34.1	0	2	292	0.00	29.716 
02:30	38.0	38.0	38.0	86	34.2	1	4	248	0.00	29.724 
02:35	38.0	38.0	38.0	86	34.2	1	2	292	0.00	29.724 
02:40	38.0	38.0	38.0	87	34.5	1	2	315	0.00	29.724 
02:45	38.0	38.0	38.0	88	34.8	0	1	270	0.00	29.732 
02:50	38.0	38.0	38.0	88	34.8	1	3	270	0.00	29.732 
02:55	38.0	38.0	38.0	88	34.8	1	5	338	0.00	29.732 
03:00	38.0	38.0	38.0	88	34.8	1	3	292	0.00	29.746 
03:05	38.2	38.2	38.2	88	35.0	1	3	315	0.00	29.746 
03:10	38.2	38.2	38.2	88	35.0	1	2	292	0.00	29.746 
03:15	38.2	38.2	38.2	88	35.0	1	3	292	0.00	29.752 
03:20	38.2	38.2	38.2	89	35.2	1	3	248	0.00	29.752 
03:25	38.3	38.3	38.3	88	35.1	2	5	315	0.00	29.752 
03:30	38.3	38.3	38.3	87	34.8	2	5	270	0.00	29.756 
03:35	38.3	38.3	38.3	87	34.8	2	4	270	0.00	29.756 
03:40	38.3	38.3	38.3	87	34.8	2	5	270	0.00	29.756 
03:45	38.3	38.3	38.3	87	34.8	1	4	270	0.00	29.762 
03:50	38.2	38.2	38.2	87	34.7	1	3	270	0.00	29.762 
03:55	38.2	38.2	38.2	87	34.7	2	6	292	0.00	29.762 
04:00	38.2	38.2	38.2	85	34.1	2	6	270	0.00	29.765 
04:05	38.2	38.2	38.2	84	33.8	2	4	270	0.00	29.765 
04:10	38.3	38.3	38.3	81	33.0	2	6	270	0.00	29.765 
04:15	38.5	38.5	38.5	78	32.2	2	5	270	0.00	29.772 
04:20	38.6	38.6	38.6	79	32.7	1	3	315	0.00	29.772 
04:25	38.5	38.5	38.5	79	32.6	1	5	270	0.00	29.772 
04:30	38.6	38.6	38.6	78	32.3	1	4	248	0.00	29.778 
04:35	38.6	38.6	38.6	79	32.7	1	3	270	0.00	29.778 
04:40	38.5	38.5	38.5	80	32.9	1	4	248	0.00	29.778 
04:45	38.5	38.5	38.5	80	32.9	1	4	248	0.00	29.784 
04:50	38.5	38.5	38.5	81	33.2	1	3	248	0.00	29.784 
04:55	38.5	38.5	38.5	81	33.2	1	3	248	0.00	29.784 
05:00	38.3	38.3	38.3	80	32.7	1	4	248	0.00	29.792 
05:05	38.3	38.3	38.3	80	32.7	2	5	270	0.00	29.792 
05:10	38.5	38.5	38.5	78	32.2	1	4	248	0.00	29.792 
05:15	38.5	38.5	38.5	76	31.6	2	5	270	0.00	29.796 
05:20	38.6	38.6	38.6	73	30.7	3	9	270	0.00	29.796 
05:25	38.8	38.8	38.8	75	31.6	1	7	315	0.00	29.796 
05:30	38.6	38.6	38.6	74	31.0	1	3	292	0.00	29.804 
05:35	38.6	38.6	38.6	74	31.0	2	5	270	0.00	29.804 
05:40	38.5	38.5	38.5	74	30.9	1	3	315	0.00	29.804 
05:45	38.5	38.5	38.5	73	30.6	1	4	315	0.00	29.813 
05:50	38.5	38.5	38.5	73	30.6	1	3	248	0.00	29.813 
05:55	38.5	38.5	38.5	74	30.9	1	2	292	0.00	29.813 
06:00	38.5	38.5	38.5	75	31.3	0	2	270	0.00	29.825 
06:05	38.3	38.3	38.3	76	31.4	1	2	270	0.00	29.825 
06:10	38.3	38.3	38.3	77	31.7	2	4	270	0.00	29.825 
06:15	38.3	38.3	38.3	78	32.1	1	2	248	0.00	29.833 
06:20	38.3	38.3	38.3	78	32.1	2	5	248	0.00	29.833 
06:25	38.2	38.2	38.2	79	32.3	1	4	248	0.00	29.833 
06:30	38.2	38.2	38.2	79	32.3	1	4	248	0.00	29.843 
06:35	38.2	38.2	38.2	79	32.3	1	3	248	0.00	29.843 
06:40	38.2	38.2	38.2	79	32.3	1	4	270	0.00	29.843 
06:45	38.2	38.2	38.2	80	32.6	2	5	248	0.00	29.846 
06:50	38.2	38.2	38.2	80	32.6	1	3	248	0.00	29.846 
06:55	38.2	38.2	38.2	80	32.6	1	4	248	0.00	29.846 
07:00	38.2	38.2	38.2	81	32.9	1	6	248	0.00	29.858 
07:05	38.2	38.2	38.2	80	32.6	2	6	248	0.00	29.858 
07:10	38.2	38.2	38.2	80	32.6	2	6	248	0.00	29.858 
07:15	38.2	38.2	38.2	80	32.6	1	4	248	0.00	29.865 
07:20	38.0	38.0	38.0	80	32.4	1	3	248	0.00	29.865 
07:25	38.0	38.0	38.0	80	32.4	1	4	248	0.00	29.865 
07:30	38.0	38.0	38.0	80	32.4	1	3	248	0.00	29.871 
07:35	38.0	38.0	38.0	80	32.4	1	4	248	0.00	29.871 
07:40	38.0	38.0	38.0	80	32.4	1	5	248	0.00	29.871 
07:45	37.9	37.9	37.9	80	32.3	1	3	248	0.00	29.878 
07:50	37.9	37.9	37.9	80	32.3	2	4	248	0.00	29.878 
07:55	37.9	37.9	37.9	80	32.3	1	3	248	0.00	29.878 
08:00	37.9	37.9	37.9	80	32.3	1	5	248	0.00	29.889 
08:05	37.9	37.9	37.9	80	32.3	1	4	248	0.00	29.889 
08:10	37.9	37.9	37.9	80	32.3	2	4	248	0.00	29.889 
08:15	37.9	37.9	37.9	80	32.3	2	4	248	0.00	29.899 
08:20	37.9	37.9	37.9	80	32.3	2	6	248	0.00	29.899 
08:25	37.8	37.8	37.8	81	32.5	1	3	248	0.00	29.899 
08:30	37.8	37.8	37.8	80	32.2	2	7	248	0.00	29.905 
08:35	37.8	37.8	37.8	80	32.2	2	5	248	0.00	29.905 
08:40	37.8	37.8	37.8	79	31.9	2	5	270	0.00	29.905 
08:45	37.8	37.8	37.8	80	32.2	2	5	270	0.00	29.912 
08:50	37.8	37.8	37.8	79	31.9	2	5	248	0.00	29.912 
08:55	37.9	37.9	37.9	79	32.0	2	5	248	0.00	29.912 
09:00	37.9	37.9	37.9	79	32.0	2	6	248	0.00	29.918 
09:05	37.9	37.9	37.9	79	32.0	2	5	248	0.00	29.918 
09:10	37.9	37.9	37.9	78	31.7	2	5	270	0.00	29.918 
09:15	37.9	37.9	37.9	79	32.0	1	6	270	0.00	29.926 
09:20	37.9	37.9	37.9	77	31.3	2	7	248	0.00	29.926 
09:25	37.9	37.9	37.9	77	31.3	2	7	270	0.00	29.926 
09:30	38.0	38.0	38.0	77	31.4	2	5	270	0.00	29.931 
09:35	38.0	38.0	38.0	77	31.4	1	3	248	0.00	29.931 
09:40	38.2	38.2	38.2	77	31.6	2	5	248	0.00	29.931 
09:45	38.2	38.2	38.2	77	31.6	2	5	248	0.00	29.934 
09:50	38.2	38.2	38.2	77	31.6	2	6	248	0.00	29.934 
09:55	38.2	38.2	38.2	77	31.6	3	10	248	0.00	29.934 
10:00	38.0	38.0	38.0	77	31.4	3	7	270	0.00	29.941 
10:05	38.0	38.0	38.0	76	31.1	2	7	248	0.00	29.941 
10:10	38.0	38.0	38.0	76	31.1	2	5	248	0.00	29.941 
10:15	38.0	38.0	38.0	77	31.4	2	4	248	0.00	29.947 
10:20	38.2	38.2	38.2	75	31.0	2	4	270	0.00	29.947 
10:25	38.2	38.2	38.2	76	31.3	2	6	248	0.00	29.947 
10:30	38.2	38.2	38.2	76	31.3	2	7	248	0.00	29.955 
10:35	38.3	38.3	38.3	74	30.8	3	9	248	0.00	29.955 
10:40	38.3	38.3	38.3	74	30.8	3	6	248	0.00	29.955 
10:45	38.6	38.6	38.6	74	31.0	2	4	270	0.00	29.957 
10:50	38.8	38.8	38.8	73	30.9	2	5	248	0.00	29.957 
10:55	38.9	38.9	38.9	73	31.0	1	4	248	0.00	29.957 
11:00	38.9	38.9	38.9	72	30.7	3	9	248	0.00	29.959 
11:05	38.9	38.9	38.9	73	31.0	2	6	248	0.00	29.959 
11:10	38.8	38.8	38.8	75	31.6	2	6	248	0.00	29.959 
11:15	38.8	38.8	38.8	74	31.2	1	4	248	0.00	29.958 
11:20	38.8	38.8	38.8	73	30.9	2	6	248	0.00	29.958 
11:25	38.8	38.8	38.8	73	30.9	3	7	248	0.00	29.958 
11:30	38.9	38.9	38.9	73	31.0	2	4	248	0.00	29.955 
11:35	38.8	38.8	38.8	71	30.2	2	5	248	0.00	29.955 
11:40	38.8	38.8	38.8	72	30.6	3	11	248	0.00	29.955 
11:45	38.8	38.8	38.8	72	30.6	2	4	270	0.00	29.957 
11:50	38.6	38.6	38.6	71	30.0	2	5	270	0.00	29.957 
11:55	38.5	38.5	38.5	70	29.6	3	8	248	0.00	29.957 
12:00	38.5	38.5	38.5	71	29.9	2	5	248	0.00	29.959 
12:05	38.6	38.6	38.6	69	29.3	2	7	270	0.00	29.959 
12:10	38.6	38.6	38.6	69	29.3	2	6	270	0.00	29.959 
12:15	38.6	38.6	38.6	69	29.3	2	4	248	0.00	29.955 
12:20	38.6	38.6	38.6	69	29.3	2	4	248	0.00	29.955 
12:25	38.6	38.6	38.6	69	29.3	2	4	270	0.00	29.955 
12:30	38.6	38.6	38.6	68	29.0	1	4	270	0.00	29.954 
12:35	38.8	38.8	38.8	69	29.5	1	3	270	0.00	29.954 
12:40	38.8	38.8	38.8	69	29.5	1	3	270	0.00	29.954 
12:45	38.9	38.9	38.9	68	29.3	2	4	248	0.00	29.953 
12:50	39.1	39.1	39.1	69	29.8	1	5	270	0.00	29.953 
12:55	39.1	39.1	39.1	67	29.1	2	5	248	0.00	29.953 
13:00	39.1	39.1	39.1	68	29.4	1	3	248	0.00	29.946 
13:05	39.1	39.1	39.1	68	29.4	1	4	270	0.00	29.946 
13:10	39.2	39.2	39.2	67	29.2	2	3	248	0.00	29.946 
13:15	39.2	39.2	39.2	66	28.8	1	5	248	0.00	29.943 
13:20	39.3	39.3	39.3	67	29.3	2	9	248	0.00	29.943 
13:25	39.2	39.2	39.2	66	28.8	3	5	248	0.00	29.943 
13:30	39.3	39.3	39.3	67	29.3	2	5	248	0.00	29.945 
13:35	39.8	39.8	39.8	66	29.4	2	5	248	0.00	29.945 
13:40	39.8	39.8	39.8	66	29.4	2	5	248	0.00	29.945 
13:45	39.6	39.6	39.6	65	28.8	2	5	248	0.00	29.949 
13:50	39.5	39.5	39.5	64	28.3	3	7	248	0.00	29.949 
13:55	39.2	39.2	39.2	65	28.4	2	6	248	0.00	29.949 
14:00	38.9	38.9	38.9	66	28.5	1	3	248	0.00	29.951 
14:05	38.8	38.8	38.8	66	28.4	1	4	270	0.00	29.951 
14:10	38.8	38.8	38.8	67	28.8	1	4	248	0.00	29.951 
14:15	38.6	38.6	38.6	66	28.2	1	4	248	0.00	29.953 
14:20	38.6	38.6	38.6	67	28.6	1	4	248	0.00	29.953 
14:25	38.8	38.8	38.8	69	29.5	2	5	270	0.00	29.953 
14:30	38.9	38.9	38.9	67	28.9	3	5	248	0.00	29.954 
14:35	38.9	38.9	38.9	67	28.9	2	5	248	0.00	29.954 
14:40	38.9	38.9	38.9	67	28.9	3	7	248	0.00	29.954 
14:45	38.6	38.6	38.6	68	29.0	1	4	248	0.00	29.954 
14:50	38.3	38.3	38.3	68	28.7	1	6	248	0.00	29.954 
14:55	38.3	38.3	38.3	68	28.7	1	4	248	0.00	29.954 
15:00	38.3	38.3	38.3	68	28.7	1	3	270	0.00	29.954 
15:05	38.3	38.3	38.3	68	28.7	1	3	248	0.00	29.954 
15:10	38.3	38.3	38.3	69	29.0	1	2	248	0.00	29.954 
15:15	38.3	38.3	38.3	69	29.0	1	5	248	0.00	29.956 
15:20	38.3	38.3	38.3	69	29.0	2	5	248	0.00	29.956 
15:25	38.3	38.3	38.3	69	29.0	1	4	248	0.00	29.956 
15:30	38.3	38.3	38.3	68	28.7	1	4	248	0.00	29.960 
15:35	38.5	38.5	38.5	69	29.2	1	2	315	0.00	29.960 
15:40	38.5	38.5	38.5	70	29.6	0	1	292	0.00	29.960 
15:45	38.5	38.5	38.5	70	29.6	1	4	270	0.00	29.969 
15:50	38.5	38.5	38.5	70	29.6	1	4	248	0.00	29.969 
15:55	38.5	38.5	38.5	69	29.2	2	6	248	0.00	29.969 
16:00	38.3	38.3	38.3	68	28.7	2	4	248	0.00	29.971 
16:05	38.2	38.2	38.2	69	28.9	1	5	270	0.00	29.971 
16:10	38.2	38.2	38.2	69	28.9	1	3	248	0.00	29.971 
16:15	38.2	38.2	38.2	68	28.6	1	4	248	0.00	29.973 
16:20	38.2	38.2	38.2	69	28.9	1	5	248	0.00	29.973 
16:25	38.0	38.0	38.0	69	28.7	0	2	248	0.00	29.973 
16:30	38.0	38.0	38.0	69	28.7	0	1	248	0.00	29.979 
16:35	38.0	38.0	38.0	70	29.1	0	1	248	0.00	29.979 
16:40	37.9	37.9	37.9	70	29.0	0	2	248	0.00	29.979 
16:45	38.0	38.0	38.0	70	29.1	1	4	248	0.00	29.984 
16:50	38.0	38.0	38.0	69	28.7	1	5	248	0.00	29.984 
16:55	38.0	38.0	38.0	71	29.4	0	1	248	0.00	29.984 
17:00	38.0	38.0	38.0	72	29.8	0	1	248	0.00	29.986 
17:05	37.9	37.9	37.9	70	29.0	1	6	248	0.00	29.986 
17:10	37.8	37.8	37.8	69	28.6	1	5	270	0.00	29.986 
17:15	37.8	37.8	37.8	70	28.9	0	2	270	0.00	29.987 
17:20	37.6	37.6	37.6	70	28.7	1	5	248	0.00	29.987 
17:25	37.6	37.6	37.6	70	28.7	0	2	225	0.00	29.987 
17:30	37.5	37.5	37.5	70	28.6	0	3	225	0.00	29.987 
17:35	37.3	37.3	37.3	70	28.4	1	3	248	0.00	29.987 
17:40	37.2	37.2	37.2	71	28.7	0	1	248	0.00	29.987 
17:45	37.2	37.2	37.2	71	28.7	0	1	248	0.00	29.987 
17:50	37.2	37.2	37.2	71	28.7	0	1	248	0.00	29.987 
17:55	37.0	37.0	37.0	72	28.8	0	0	---	0.00	29.987 
18:00	37.0	37.0	37.0	73	29.2	0	0	---	0.00	29.990 
18:05	37.2	37.2	37.2	72	29.0	0	1	248	0.00	29.990 
18:10	37.2	37.2	37.2	73	29.4	0	1	248	0.00	29.990 
18:15	37.2	37.2	37.2	73	29.4	0	1	248	0.00	29.998 
18:20	37.2	37.2	37.2	73	29.4	0	1	248	0.00	29.998 
18:25	37.3	37.3	37.3	73	29.5	0	1	248	0.00	29.998 
18:30	37.3	37.3	37.3	72	29.1	0	2	248	0.00	29.997 
18:35	37.3	37.3	37.3	72	29.1	0	1	248	0.00	29.997 
18:40	37.3	37.3	37.3	72	29.1	1	3	248	0.00	29.997 
18:45	37.3	37.3	37.3	72	29.1	0	1	248	0.00	29.999 
18:50	37.3	37.3	37.3	72	29.1	0	2	248	0.00	29.999 
18:55	37.2	37.2	37.2	72	29.0	0	0	---	0.00	29.999 
19:00	37.0	37.0	37.0	72	28.8	0	1	248	0.00	30.003 
19:05	37.0	37.0	37.0	72	28.8	1	3	248	0.00	30.003 
19:10	37.0	37.0	37.0	73	29.2	0	2	248	0.00	30.003 
19:15	37.0	37.0	37.0	73	29.2	0	3	248	0.00	30.003 
19:20	36.9	36.9	36.9	73	29.1	0	1	248	0.00	30.003 
19:25	36.8	36.8	36.8	73	29.0	0	1	248	0.00	30.003 
19:30	36.6	36.6	36.6	73	28.8	0	1	248	0.00	30.007 
19:35	36.6	36.6	36.6	74	29.1	0	1	248	0.00	30.007 
19:40	36.5	36.5	36.5	74	29.0	0	1	248	0.00	30.007 
19:45	36.3	36.3	36.3	74	28.8	0	1	248	0.00	30.006 
19:50	36.2	36.2	36.2	75	29.1	0	0	---	0.00	30.006 
19:55	36.0	36.0	36.0	75	28.9	0	1	248	0.00	30.006 
20:00	36.0	36.0	36.0	76	29.2	0	1	248	0.00	30.007 
20:05	36.0	36.0	36.0	76	29.2	0	0	---	0.00	30.007 
20:10	36.0	36.0	36.0	76	29.2	0	0	---	0.00	30.007 
20:15	36.0	36.0	36.0	77	29.5	0	0	---	0.00	30.008 
20:20	36.0	36.0	36.0	77	29.5	0	0	---	0.00	30.008 
20:25	35.9	35.9	35.9	77	29.4	0	0	---	0.00	30.008 
20:30	35.9	35.9	35.9	77	29.4	0	0	---	0.00	30.006 
20:35	35.8	35.8	35.8	77	29.3	0	0	---	0.00	30.006 
20:40	35.6	35.6	35.6	77	29.1	0	0	---	0.00	30.006 
20:45	35.6	35.6	35.6	78	29.4	0	0	---	0.00	30.008 
20:50	35.5	35.5	35.5	78	29.3	0	0	---	0.00	30.008 
20:55	35.5	35.5	35.5	78	29.3	0	0	---	0.00	30.008 
21:00	35.3	35.3	35.3	79	29.4	0	0	---	0.00	30.012 
21:05	35.2	35.2	35.2	80	29.7	0	0	---	0.00	30.012 
21:10	35.2	35.2	35.2	80	29.7	0	0	---	0.00	30.012 
21:15	35.0	35.0	35.0	81	29.8	0	0	---	0.00	30.017 
21:20	35.0	35.0	35.0	81	29.8	0	0	---	0.00	30.017 
21:25	34.9	34.9	34.9	81	29.7	0	0	---	0.00	30.017 
21:30	34.9	34.9	34.9	81	29.7	0	0	---	0.00	30.020 
21:35	34.9	34.9	34.9	82	30.0	0	0	---	0.00	30.020 
21:40	34.7	34.7	34.7	82	29.8	0	0	---	0.00	30.020 
21:45	34.7	34.7	34.7	83	30.1	0	0	---	0.00	30.022 
21:50	34.7	34.7	34.7	83	30.1	0	0	---	0.00	30.022 
21:55	34.7	34.7	34.7	83	30.1	0	0	---	0.00	30.022 
22:00	34.7	34.7	34.7	83	30.1	0	0	---	0.00	30.022 
22:05	34.7	34.7	34.7	83	30.1	0	0	---	0.00	30.022 
22:10	34.7	34.7	34.7	84	30.4	0	0	---	0.00	30.022 
22:15	34.7	34.7	34.7	84	30.4	0	0	---	0.00	30.023 
22:20	34.9	34.9	34.9	84	30.6	0	0	---	0.00	30.023 
22:25	34.9	34.9	34.9	84	30.6	0	0	---	0.00	30.023 
22:30	34.9	34.9	34.9	84	30.6	0	0	---	0.00	30.027 
22:35	35.0	35.0	35.0	84	30.7	0	0	---	0.00	30.027 
22:40	35.0	35.0	35.0	84	30.7	0	0	---	0.00	30.027 
22:45	35.0	35.0	35.0	84	30.7	0	0	---	0.00	30.029 
22:50	35.2	35.2	35.2	84	30.9	0	0	---	0.00	30.029 
22:55	35.2	35.2	35.2	84	30.9	0	0	---	0.00	30.029 
23:00	35.3	35.3	35.3	84	31.0	0	0	---	0.00	30.030 
23:05	35.3	35.3	35.3	84	31.0	0	0	---	0.00	30.030 
23:10	35.5	35.5	35.5	85	31.4	0	0	---	0.00	30.030 
23:15	35.6	35.6	35.6	85	31.5	0	0	---	0.00	30.035 
23:20	35.8	35.8	35.8	85	31.7	0	0	---	0.00	30.035 
23:25	35.8	35.8	35.8	85	31.7	0	0	---	0.00	30.035 
23:30	35.8	35.8	35.8	85	31.7	0	0	---	0.00	30.035 
23:35	35.8	35.8	35.8	85	31.7	0	0	---	0.00	30.035 
23:40	35.8	35.8	35.8	85	31.7	0	0	---	0.00	30.035 
23:45	35.8	35.8	35.8	84	31.4	0	0	---	0.00	30.036 
23:50	35.9	35.9	35.9	84	31.5	0	0	---	0.00	30.036 
23:55	35.9	35.9	35.9	84	31.5	0	0	---	0.00	30.036 

CoCoRaHS
IN-AL-39
A2 Web Hosting
Creative Commons License
GoDaddy
Look for:

loaded 2017-10-17 22:35:37 • last modified 2010-11-18 10:43:29
Privacy PolicyDisclaimer
• wx.awcolley.com is powered by PmWiki v.2002016 •
• all content (unless otherwise noted) © 2017 A W Colley